MSY weather

Louis Armstrong New Orleans International Airport
New Orleans, Louisiana, United States

Public forecast

Using degrees Fahrenheit for public forecast. Weather courtesy of forecast.io.

Current aviation weather report (METAR) for Louis Armstrong New Orleans International Airport

Retrieved 2019/11/12 13:27 UTC (0 seconds ago):

KMSY 121327Z 34018G28KT 10SM OVC013 06/02 A3024 RMK AO2 PK WND 34028/1322 RAE03 P0000 T00560022

Aviation forecast (TAF) for Louis Armstrong New Orleans International Airport

Retrieved 2019/11/12 12:30 UTC (35 minutes ago):

TAF KMSY 121128Z 1212/1318 35017G26KT P6SM VCSH OVC013 FM121600 36023G34KT P6SM VCSH BKN050 FM130600 02016G27KT P6SM FEW250 FM131500 05006KT P6SM FEW250